sensor_id;sensor_type;location;lat;lon;timestamp;P1;durP1;ratioP1;P2;durP2;ratioP2
22336;SDS011;14992;50.844;4.418;2022-07-23T00:01:33;19.88;;;15.52;;
22336;SDS011;14992;50.844;4.418;2022-07-23T00:04:02;19.10;;;14.68;;
22336;SDS011;14992;50.844;4.418;2022-07-23T00:06:30;24.08;;;15.93;;
22336;SDS011;14992;50.844;4.418;2022-07-23T00:08:58;20.55;;;14.90;;
22336;SDS011;14992;50.844;4.418;2022-07-23T00:11:27;22.85;;;15.45;;
22336;SDS011;14992;50.844;4.418;2022-07-23T00:13:56;20.65;;;15.73;;
22336;SDS011;14992;50.844;4.418;2022-07-23T00:16:26;23.13;;;16.58;;
22336;SDS011;14992;50.844;4.418;2022-07-23T00:18:56;22.92;;;15.98;;
22336;SDS011;14992;50.844;4.418;2022-07-23T00:21:24;18.70;;;16.10;;
22336;SDS011;14992;50.844;4.418;2022-07-23T00:23:53;24.55;;;16.65;;
22336;SDS011;14992;50.844;4.418;2022-07-23T00:26:21;23.60;;;16.67;;
22336;SDS011;14992;50.844;4.418;2022-07-23T00:28:50;25.15;;;18.27;;
22336;SDS011;14992;50.844;4.418;2022-07-23T00:31:19;22.15;;;16.83;;
22336;SDS011;14992;50.844;4.418;2022-07-23T00:33:48;27.27;;;18.55;;
22336;SDS011;14992;50.844;4.418;2022-07-23T00:36:17;24.15;;;18.65;;
22336;SDS011;14992;50.844;4.418;2022-07-23T00:38:45;21.92;;;18.05;;
22336;SDS011;14992;50.844;4.418;2022-07-23T00:41:13;27.42;;;18.70;;
22336;SDS011;14992;50.844;4.418;2022-07-23T00:43:42;25.50;;;18.15;;
22336;SDS011;14992;50.844;4.418;2022-07-23T00:46:10;26.08;;;19.15;;
22336;SDS011;14992;50.844;4.418;2022-07-23T00:48:39;27.38;;;19.33;;
22336;SDS011;14992;50.844;4.418;2022-07-23T00:51:09;26.08;;;18.92;;
22336;SDS011;14992;50.844;4.418;2022-07-23T00:53:37;22.80;;;17.20;;
22336;SDS011;14992;50.844;4.418;2022-07-23T00:56:06;25.13;;;17.75;;
22336;SDS011;14992;50.844;4.418;2022-07-23T00:58:36;23.48;;;18.13;;
22336;SDS011;14992;50.844;4.418;2022-07-23T01:01:05;27.63;;;19.33;;
22336;SDS011;14992;50.844;4.418;2022-07-23T01:03:36;25.00;;;17.92;;
22336;SDS011;14992;50.844;4.418;2022-07-23T01:06:04;25.55;;;18.35;;
22336;SDS011;14992;50.844;4.418;2022-07-23T01:08:34;22.38;;;18.25;;
22336;SDS011;14992;50.844;4.418;2022-07-23T01:11:02;22.92;;;18.73;;
22336;SDS011;14992;50.844;4.418;2022-07-23T01:13:31;25.40;;;18.05;;
22336;SDS011;14992;50.844;4.418;2022-07-23T01:16:00;23.80;;;18.60;;
22336;SDS011;14992;50.844;4.418;2022-07-23T01:18:29;28.98;;;19.70;;
22336;SDS011;14992;50.844;4.418;2022-07-23T01:20:57;24.27;;;18.90;;
22336;SDS011;14992;50.844;4.418;2022-07-23T01:23:27;23.48;;;19.35;;
22336;SDS011;14992;50.844;4.418;2022-07-23T01:25:57;27.00;;;19.83;;
22336;SDS011;14992;50.844;4.418;2022-07-23T01:28:27;27.67;;;20.77;;
22336;SDS011;14992;50.844;4.418;2022-07-23T01:30:57;29.48;;;19.40;;
22336;SDS011;14992;50.844;4.418;2022-07-23T01:33:30;29.17;;;20.05;;
22336;SDS011;14992;50.844;4.418;2022-07-23T01:35:58;24.52;;;19.27;;
22336;SDS011;14992;50.844;4.418;2022-07-23T01:38:28;22.60;;;19.38;;
22336;SDS011;14992;50.844;4.418;2022-07-23T01:40:56;31.33;;;19.45;;
22336;SDS011;14992;50.844;4.418;2022-07-23T01:43:29;26.42;;;20.20;;
22336;SDS011;14992;50.844;4.418;2022-07-23T01:45:58;26.30;;;19.88;;
22336;SDS011;14992;50.844;4.418;2022-07-23T01:48:32;29.63;;;21.17;;
22336;SDS011;14992;50.844;4.418;2022-07-23T01:51:16;27.75;;;20.05;;
22336;SDS011;14992;50.844;4.418;2022-07-23T01:53:53;28.17;;;19.98;;
22336;SDS011;14992;50.844;4.418;2022-07-23T01:56:22;26.17;;;18.95;;
22336;SDS011;14992;50.844;4.418;2022-07-23T01:58:50;25.25;;;19.90;;
22336;SDS011;14992;50.844;4.418;2022-07-23T02:01:19;28.02;;;19.67;;
22336;SDS011;14992;50.844;4.418;2022-07-23T02:03:48;25.52;;;20.67;;
22336;SDS011;14992;50.844;4.418;2022-07-23T02:06:16;27.23;;;20.08;;
22336;SDS011;14992;50.844;4.418;2022-07-23T02:08:45;24.63;;;19.15;;
22336;SDS011;14992;50.844;4.418;2022-07-23T02:11:15;26.50;;;19.25;;
22336;SDS011;14992;50.844;4.418;2022-07-23T02:13:43;27.10;;;19.60;;
22336;SDS011;14992;50.844;4.418;2022-07-23T02:16:11;25.05;;;19.50;;
22336;SDS011;14992;50.844;4.418;2022-07-23T02:18:40;27.15;;;19.98;;
22336;SDS011;14992;50.844;4.418;2022-07-23T02:21:10;26.85;;;19.45;;
22336;SDS011;14992;50.844;4.418;2022-07-23T02:23:38;27.80;;;20.25;;
22336;SDS011;14992;50.844;4.418;2022-07-23T02:26:06;26.52;;;20.75;;
22336;SDS011;14992;50.844;4.418;2022-07-23T02:28:36;28.65;;;20.13;;
22336;SDS011;14992;50.844;4.418;2022-07-23T02:31:05;26.20;;;19.98;;
22336;SDS011;14992;50.844;4.418;2022-07-23T02:33:34;27.13;;;19.88;;
22336;SDS011;14992;50.844;4.418;2022-07-23T02:36:03;31.20;;;19.95;;
22336;SDS011;14992;50.844;4.418;2022-07-23T02:38:31;24.83;;;19.08;;
22336;SDS011;14992;50.844;4.418;2022-07-23T02:41:00;26.27;;;20.33;;
22336;SDS011;14992;50.844;4.418;2022-07-23T02:43:28;25.65;;;19.38;;
22336;SDS011;14992;50.844;4.418;2022-07-23T02:45:58;27.05;;;20.67;;
22336;SDS011;14992;50.844;4.418;2022-07-23T02:48:27;28.02;;;20.30;;
22336;SDS011;14992;50.844;4.418;2022-07-23T02:50:56;28.77;;;20.77;;
22336;SDS011;14992;50.844;4.418;2022-07-23T02:53:30;26.70;;;19.92;;
22336;SDS011;14992;50.844;4.418;2022-07-23T02:55:58;27.05;;;19.50;;
22336;SDS011;14992;50.844;4.418;2022-07-23T02:58:26;25.60;;;20.08;;
22336;SDS011;14992;50.844;4.418;2022-07-23T03:00:55;25.70;;;19.80;;
22336;SDS011;14992;50.844;4.418;2022-07-23T03:03:26;25.48;;;18.83;;
22336;SDS011;14992;50.844;4.418;2022-07-23T03:05:56;24.23;;;19.15;;
22336;SDS011;14992;50.844;4.418;2022-07-23T03:08:24;30.25;;;21.02;;
22336;SDS011;14992;50.844;4.418;2022-07-23T03:10:52;25.73;;;19.23;;
22336;SDS011;14992;50.844;4.418;2022-07-23T03:13:21;30.27;;;20.05;;
22336;SDS011;14992;50.844;4.418;2022-07-23T03:15:51;27.05;;;19.90;;
22336;SDS011;14992;50.844;4.418;2022-07-23T03:18:19;24.40;;;19.92;;
22336;SDS011;14992;50.844;4.418;2022-07-23T03:20:49;26.45;;;20.77;;
22336;SDS011;14992;50.844;4.418;2022-07-23T03:23:17;28.65;;;20.55;;
22336;SDS011;14992;50.844;4.418;2022-07-23T03:25:46;30.83;;;22.42;;
22336;SDS011;14992;50.844;4.418;2022-07-23T03:28:20;28.60;;;20.77;;
22336;SDS011;14992;50.844;4.418;2022-07-23T03:30:50;28.45;;;20.73;;
22336;SDS011;14992;50.844;4.418;2022-07-23T03:33:20;28.48;;;21.73;;
22336;SDS011;14992;50.844;4.418;2022-07-23T03:35:50;27.20;;;21.38;;
22336;SDS011;14992;50.844;4.418;2022-07-23T03:38:24;28.00;;;20.75;;
22336;SDS011;14992;50.844;4.418;2022-07-23T03:40:53;28.90;;;20.90;;
22336;SDS011;14992;50.844;4.418;2022-07-23T03:43:21;28.98;;;20.92;;
22336;SDS011;14992;50.844;4.418;2022-07-23T03:45:50;26.05;;;19.83;;
22336;SDS011;14992;50.844;4.418;2022-07-23T03:48:19;27.75;;;19.52;;
22336;SDS011;14992;50.844;4.418;2022-07-23T03:50:47;25.90;;;19.73;;
22336;SDS011;14992;50.844;4.418;2022-07-23T03:53:17;29.08;;;20.08;;
22336;SDS011;14992;50.844;4.418;2022-07-23T03:55:46;28.17;;;20.60;;
22336;SDS011;14992;50.844;4.418;2022-07-23T03:58:14;31.85;;;21.10;;
22336;SDS011;14992;50.844;4.418;2022-07-23T04:00:42;25.15;;;19.90;;
22336;SDS011;14992;50.844;4.418;2022-07-23T04:03:11;30.88;;;21.15;;
22336;SDS011;14992;50.844;4.418;2022-07-23T04:05:41;33.67;;;21.13;;
22336;SDS011;14992;50.844;4.418;2022-07-23T04:08:14;29.15;;;21.17;;
22336;SDS011;14992;50.844;4.418;2022-07-23T04:10:47;27.67;;;20.88;;
22336;SDS011;14992;50.844;4.418;2022-07-23T04:13:15;27.88;;;21.58;;
22336;SDS011;14992;50.844;4.418;2022-07-23T04:15:44;28.23;;;20.70;;
22336;SDS011;14992;50.844;4.418;2022-07-23T04:18:12;29.63;;;21.10;;
22336;SDS011;14992;50.844;4.418;2022-07-23T04:20:47;29.35;;;20.42;;
22336;SDS011;14992;50.844;4.418;2022-07-23T04:23:17;29.08;;;20.73;;
22336;SDS011;14992;50.844;4.418;2022-07-23T04:25:46;28.95;;;20.10;;
22336;SDS011;14992;50.844;4.418;2022-07-23T04:28:15;27.80;;;20.15;;
22336;SDS011;14992;50.844;4.418;2022-07-23T04:30:44;29.40;;;20.63;;
22336;SDS011;14992;50.844;4.418;2022-07-23T04:33:14;26.17;;;19.40;;
22336;SDS011;14992;50.844;4.418;2022-07-23T04:35:45;26.27;;;20.00;;
22336;SDS011;14992;50.844;4.418;2022-07-23T04:40:50;23.95;;;18.33;;
22336;SDS011;14992;50.844;4.418;2022-07-23T04:43:18;29.00;;;19.52;;
22336;SDS011;14992;50.844;4.418;2022-07-23T04:45:49;26.58;;;18.42;;
22336;SDS011;14992;50.844;4.418;2022-07-23T04:48:18;27.45;;;18.60;;
22336;SDS011;14992;50.844;4.418;2022-07-23T04:50:52;27.67;;;17.83;;
22336;SDS011;14992;50.844;4.418;2022-07-23T04:53:28;27.63;;;18.30;;
22336;SDS011;14992;50.844;4.418;2022-07-23T04:55:59;25.35;;;17.90;;
22336;SDS011;14992;50.844;4.418;2022-07-23T04:58:29;24.33;;;18.08;;
22336;SDS011;14992;50.844;4.418;2022-07-23T05:00:59;24.50;;;17.60;;
22336;SDS011;14992;50.844;4.418;2022-07-23T05:03:29;24.75;;;17.15;;
22336;SDS011;14992;50.844;4.418;2022-07-23T05:05:58;24.50;;;18.10;;
22336;SDS011;14992;50.844;4.418;2022-07-23T05:08:28;23.65;;;17.67;;
22336;SDS011;14992;50.844;4.418;2022-07-23T05:10:58;29.58;;;18.80;;
22336;SDS011;14992;50.844;4.418;2022-07-23T05:13:28;25.05;;;17.40;;
22336;SDS011;14992;50.844;4.418;2022-07-23T05:15:57;23.52;;;18.33;;
22336;SDS011;14992;50.844;4.418;2022-07-23T05:18:26;24.23;;;18.02;;
22336;SDS011;14992;50.844;4.418;2022-07-23T05:20:54;23.40;;;17.33;;
22336;SDS011;14992;50.844;4.418;2022-07-23T05:23:23;25.40;;;17.15;;
22336;SDS011;14992;50.844;4.418;2022-07-23T05:25:53;22.65;;;17.20;;
22336;SDS011;14992;50.844;4.418;2022-07-23T05:28:21;25.17;;;17.30;;
22336;SDS011;14992;50.844;4.418;2022-07-23T05:30:51;22.15;;;17.50;;
22336;SDS011;14992;50.844;4.418;2022-07-23T05:33:21;23.90;;;16.52;;
22336;SDS011;14992;50.844;4.418;2022-07-23T05:35:50;22.52;;;16.92;;
22336;SDS011;14992;50.844;4.418;2022-07-23T05:38:25;24.52;;;18.08;;
22336;SDS011;14992;50.844;4.418;2022-07-23T05:40:58;22.60;;;17.95;;
22336;SDS011;14992;50.844;4.418;2022-07-23T05:43:28;22.00;;;17.67;;
22336;SDS011;14992;50.844;4.418;2022-07-23T05:46:00;21.88;;;16.67;;
22336;SDS011;14992;50.844;4.418;2022-07-23T05:48:28;24.13;;;17.05;;
22336;SDS011;14992;50.844;4.418;2022-07-23T05:51:02;22.88;;;16.35;;
22336;SDS011;14992;50.844;4.418;2022-07-23T05:53:34;23.33;;;16.92;;
22336;SDS011;14992;50.844;4.418;2022-07-23T05:56:15;23.75;;;16.77;;
22336;SDS011;14992;50.844;4.418;2022-07-23T05:58:44;23.02;;;16.83;;
22336;SDS011;14992;50.844;4.418;2022-07-23T06:01:15;24.13;;;17.13;;
22336;SDS011;14992;50.844;4.418;2022-07-23T06:03:58;24.27;;;16.73;;
22336;SDS011;14992;50.844;4.418;2022-07-23T06:06:33;22.63;;;16.38;;
22336;SDS011;14992;50.844;4.418;2022-07-23T06:09:02;24.02;;;17.17;;
22336;SDS011;14992;50.844;4.418;2022-07-23T06:11:33;23.75;;;17.70;;
22336;SDS011;14992;50.844;4.418;2022-07-23T06:14:01;21.67;;;16.48;;
22336;SDS011;14992;50.844;4.418;2022-07-23T06:16:50;22.50;;;16.35;;
22336;SDS011;14992;50.844;4.418;2022-07-23T06:19:18;21.23;;;16.83;;
22336;SDS011;14992;50.844;4.418;2022-07-23T06:21:46;24.20;;;17.92;;
22336;SDS011;14992;50.844;4.418;2022-07-23T06:24:16;22.38;;;16.80;;
22336;SDS011;14992;50.844;4.418;2022-07-23T06:26:47;25.85;;;17.90;;
22336;SDS011;14992;50.844;4.418;2022-07-23T06:29:15;26.35;;;18.27;;
22336;SDS011;14992;50.844;4.418;2022-07-23T06:31:43;24.20;;;17.70;;
22336;SDS011;14992;50.844;4.418;2022-07-23T06:34:13;20.45;;;15.98;;
22336;SDS011;14992;50.844;4.418;2022-07-23T06:36:42;22.17;;;16.67;;
22336;SDS011;14992;50.844;4.418;2022-07-23T06:39:11;23.33;;;16.23;;
22336;SDS011;14992;50.844;4.418;2022-07-23T06:41:44;27.60;;;16.23;;
22336;SDS011;14992;50.844;4.418;2022-07-23T06:44:17;22.83;;;16.58;;
22336;SDS011;14992;50.844;4.418;2022-07-23T06:46:47;30.75;;;17.17;;
22336;SDS011;14992;50.844;4.418;2022-07-23T06:49:16;22.92;;;17.27;;
22336;SDS011;14992;50.844;4.418;2022-07-23T06:51:44;23.90;;;17.25;;
22336;SDS011;14992;50.844;4.418;2022-07-23T06:54:13;25.00;;;16.63;;
22336;SDS011;14992;50.844;4.418;2022-07-23T06:56:41;27.38;;;19.13;;
22336;SDS011;14992;50.844;4.418;2022-07-23T06:59:11;25.88;;;18.33;;
22336;SDS011;14992;50.844;4.418;2022-07-23T07:01:40;22.05;;;16.45;;
22336;SDS011;14992;50.844;4.418;2022-07-23T07:04:08;20.15;;;16.25;;
22336;SDS011;14992;50.844;4.418;2022-07-23T07:06:36;22.08;;;16.45;;
22336;SDS011;14992;50.844;4.418;2022-07-23T07:09:05;23.95;;;16.10;;
22336;SDS011;14992;50.844;4.418;2022-07-23T07:11:34;21.45;;;15.85;;
22336;SDS011;14992;50.844;4.418;2022-07-23T07:14:02;20.10;;;14.48;;
22336;SDS011;14992;50.844;4.418;2022-07-23T07:16:32;23.15;;;15.93;;
22336;SDS011;14992;50.844;4.418;2022-07-23T07:19:01;20.58;;;14.32;;
22336;SDS011;14992;50.844;4.418;2022-07-23T07:21:30;25.13;;;15.45;;
22336;SDS011;14992;50.844;4.418;2022-07-23T07:23:58;17.98;;;13.73;;
22336;SDS011;14992;50.844;4.418;2022-07-23T07:26:26;21.90;;;15.38;;
22336;SDS011;14992;50.844;4.418;2022-07-23T07:28:56;20.88;;;14.98;;
22336;SDS011;14992;50.844;4.418;2022-07-23T07:31:25;18.02;;;14.30;;
22336;SDS011;14992;50.844;4.418;2022-07-23T07:33:56;20.38;;;13.80;;
22336;SDS011;14992;50.844;4.418;2022-07-23T07:36:24;20.55;;;13.50;;
22336;SDS011;14992;50.844;4.418;2022-07-23T07:38:53;19.90;;;13.02;;
22336;SDS011;14992;50.844;4.418;2022-07-23T07:41:21;19.52;;;13.65;;
22336;SDS011;14992;50.844;4.418;2022-07-23T07:43:50;19.70;;;14.30;;
22336;SDS011;14992;50.844;4.418;2022-07-23T07:46:18;20.92;;;13.82;;
22336;SDS011;14992;50.844;4.418;2022-07-23T07:48:47;19.17;;;12.90;;
22336;SDS011;14992;50.844;4.418;2022-07-23T07:51:24;17.90;;;13.23;;
22336;SDS011;14992;50.844;4.418;2022-07-23T07:53:53;17.05;;;11.95;;
22336;SDS011;14992;50.844;4.418;2022-07-23T07:56:21;16.83;;;11.32;;
22336;SDS011;14992;50.844;4.418;2022-07-23T07:58:50;15.60;;;12.38;;
22336;SDS011;14992;50.844;4.418;2022-07-23T08:01:18;22.25;;;12.65;;
22336;SDS011;14992;50.844;4.418;2022-07-23T08:03:47;20.05;;;11.40;;
22336;SDS011;14992;50.844;4.418;2022-07-23T08:06:16;16.35;;;11.57;;
22336;SDS011;14992;50.844;4.418;2022-07-23T08:08:48;16.10;;;12.13;;
22336;SDS011;14992;50.844;4.418;2022-07-23T08:11:16;15.95;;;11.23;;
22336;SDS011;14992;50.844;4.418;2022-07-23T08:13:44;20.30;;;11.45;;
22336;SDS011;14992;50.844;4.418;2022-07-23T08:16:13;20.38;;;11.55;;
22336;SDS011;14992;50.844;4.418;2022-07-23T08:18:49;14.32;;;9.98;;
22336;SDS011;14992;50.844;4.418;2022-07-23T08:21:17;17.88;;;11.98;;
22336;SDS011;14992;50.844;4.418;2022-07-23T08:23:45;15.15;;;10.00;;
22336;SDS011;14992;50.844;4.418;2022-07-23T08:26:15;17.15;;;11.65;;
22336;SDS011;14992;50.844;4.418;2022-07-23T08:28:43;17.67;;;11.70;;
22336;SDS011;14992;50.844;4.418;2022-07-23T08:31:12;16.95;;;10.95;;
22336;SDS011;14992;50.844;4.418;2022-07-23T08:33:43;19.40;;;10.25;;
22336;SDS011;14992;50.844;4.418;2022-07-23T08:36:11;16.58;;;11.93;;
22336;SDS011;14992;50.844;4.418;2022-07-23T08:38:39;19.67;;;12.40;;
22336;SDS011;14992;50.844;4.418;2022-07-23T08:41:11;15.30;;;11.52;;
22336;SDS011;14992;50.844;4.418;2022-07-23T08:43:40;21.98;;;10.52;;
22336;SDS011;14992;50.844;4.418;2022-07-23T08:46:11;15.10;;;9.85;;
22336;SDS011;14992;50.844;4.418;2022-07-23T08:48:40;15.32;;;10.20;;
22336;SDS011;14992;50.844;4.418;2022-07-23T08:51:10;18.48;;;11.40;;
22336;SDS011;14992;50.844;4.418;2022-07-23T08:53:38;14.48;;;10.40;;
22336;SDS011;14992;50.844;4.418;2022-07-23T08:56:08;33.95;;;11.45;;
22336;SDS011;14992;50.844;4.418;2022-07-23T08:58:38;15.05;;;10.05;;
22336;SDS011;14992;50.844;4.418;2022-07-23T09:01:06;16.35;;;9.75;;
22336;SDS011;14992;50.844;4.418;2022-07-23T09:03:35;14.05;;;8.88;;
22336;SDS011;14992;50.844;4.418;2022-07-23T09:06:06;16.13;;;9.60;;
22336;SDS011;14992;50.844;4.418;2022-07-23T09:08:35;15.80;;;9.75;;
22336;SDS011;14992;50.844;4.418;2022-07-23T09:11:05;16.98;;;9.25;;
22336;SDS011;14992;50.844;4.418;2022-07-23T09:13:38;15.38;;;9.00;;
22336;SDS011;14992;50.844;4.418;2022-07-23T09:16:09;13.20;;;8.93;;
22336;SDS011;14992;50.844;4.418;2022-07-23T09:18:41;18.00;;;8.65;;
22336;SDS011;14992;50.844;4.418;2022-07-23T09:21:12;17.45;;;9.45;;
22336;SDS011;14992;50.844;4.418;2022-07-23T09:23:44;12.68;;;8.70;;
22336;SDS011;14992;50.844;4.418;2022-07-23T09:29:04;13.70;;;8.45;;
22336;SDS011;14992;50.844;4.418;2022-07-23T09:31:47;12.80;;;8.30;;
22336;SDS011;14992;50.844;4.418;2022-07-23T09:34:19;15.07;;;9.30;;
22336;SDS011;14992;50.844;4.418;2022-07-23T09:36:50;15.13;;;9.27;;
22336;SDS011;14992;50.844;4.418;2022-07-23T09:39:28;12.32;;;8.57;;
22336;SDS011;14992;50.844;4.418;2022-07-23T09:41:57;15.93;;;9.05;;
22336;SDS011;14992;50.844;4.418;2022-07-23T09:44:42;12.40;;;8.27;;
22336;SDS011;14992;50.844;4.418;2022-07-23T09:47:10;14.45;;;8.15;;
22336;SDS011;14992;50.844;4.418;2022-07-23T09:49:39;13.45;;;7.85;;
22336;SDS011;14992;50.844;4.418;2022-07-23T09:52:07;13.05;;;8.38;;
22336;SDS011;14992;50.844;4.418;2022-07-23T09:54:36;15.70;;;8.00;;
22336;SDS011;14992;50.844;4.418;2022-07-23T09:57:07;12.50;;;7.22;;
22336;SDS011;14992;50.844;4.418;2022-07-23T09:59:42;13.65;;;7.97;;
22336;SDS011;14992;50.844;4.418;2022-07-23T10:02:13;12.53;;;8.23;;
22336;SDS011;14992;50.844;4.418;2022-07-23T10:05:01;12.18;;;7.45;;
22336;SDS011;14992;50.844;4.418;2022-07-23T10:07:54;13.90;;;7.78;;
22336;SDS011;14992;50.844;4.418;2022-07-23T10:10:49;10.50;;;7.05;;
22336;SDS011;14992;50.844;4.418;2022-07-23T10:13:44;10.40;;;7.07;;
22336;SDS011;14992;50.844;4.418;2022-07-23T10:16:52;11.95;;;7.50;;
22336;SDS011;14992;50.844;4.418;2022-07-23T10:19:21;12.05;;;7.38;;
22336;SDS011;14992;50.844;4.418;2022-07-23T10:21:50;12.30;;;7.43;;
22336;SDS011;14992;50.844;4.418;2022-07-23T10:24:25;11.00;;;7.25;;
22336;SDS011;14992;50.844;4.418;2022-07-23T10:27:05;10.50;;;6.80;;
22336;SDS011;14992;50.844;4.418;2022-07-23T10:29:45;7.57;;;4.97;;
22336;SDS011;14992;50.844;4.418;2022-07-23T10:32:24;10.35;;;6.55;;
22336;SDS011;14992;50.844;4.418;2022-07-23T10:35:04;10.13;;;6.60;;
22336;SDS011;14992;50.844;4.418;2022-07-23T10:37:38;9.70;;;5.60;;
22336;SDS011;14992;50.844;4.418;2022-07-23T10:40:10;10.70;;;5.30;;
22336;SDS011;14992;50.844;4.418;2022-07-23T10:42:40;11.68;;;6.60;;
22336;SDS011;14992;50.844;4.418;2022-07-23T10:45:28;7.60;;;4.32;;
22336;SDS011;14992;50.844;4.418;2022-07-23T10:48:13;8.80;;;4.40;;
22336;SDS011;14992;50.844;4.418;2022-07-23T10:50:44;7.35;;;3.65;;
22336;SDS011;14992;50.844;4.418;2022-07-23T10:53:28;7.70;;;4.32;;
22336;SDS011;14992;50.844;4.418;2022-07-23T10:56:16;8.77;;;5.18;;
22336;SDS011;14992;50.844;4.418;2022-07-23T10:59:05;6.53;;;4.03;;
22336;SDS011;14992;50.844;4.418;2022-07-23T11:01:34;7.65;;;4.85;;
22336;SDS011;14992;50.844;4.418;2022-07-23T11:04:05;7.25;;;4.38;;
22336;SDS011;14992;50.844;4.418;2022-07-23T11:09:39;10.98;;;4.45;;
22336;SDS011;14992;50.844;4.418;2022-07-23T11:15:00;7.32;;;4.20;;
22336;SDS011;14992;50.844;4.418;2022-07-23T11:17:30;9.57;;;4.38;;
22336;SDS011;14992;50.844;4.418;2022-07-23T11:20:20;9.90;;;4.40;;
22336;SDS011;14992;50.844;4.418;2022-07-23T11:22:50;8.32;;;4.05;;
22336;SDS011;14992;50.844;4.418;2022-07-23T11:25:33;8.70;;;4.45;;
22336;SDS011;14992;50.844;4.418;2022-07-23T11:28:11;6.32;;;3.85;;
22336;SDS011;14992;50.844;4.418;2022-07-23T11:30:44;8.70;;;4.38;;
22336;SDS011;14992;50.844;4.418;2022-07-23T11:33:16;7.47;;;4.10;;
22336;SDS011;14992;50.844;4.418;2022-07-23T11:36:01;8.80;;;4.88;;
22336;SDS011;14992;50.844;4.418;2022-07-23T11:38:31;9.35;;;5.20;;
22336;SDS011;14992;50.844;4.418;2022-07-23T11:41:00;8.15;;;5.32;;
22336;SDS011;14992;50.844;4.418;2022-07-23T11:43:28;9.68;;;5.03;;
22336;SDS011;14992;50.844;4.418;2022-07-23T11:45:57;11.05;;;4.95;;
22336;SDS011;14992;50.844;4.418;2022-07-23T11:48:28;12.27;;;5.10;;
22336;SDS011;14992;50.844;4.418;2022-07-23T11:51:03;10.50;;;4.63;;
22336;SDS011;14992;50.844;4.418;2022-07-23T11:53:32;8.25;;;5.00;;
22336;SDS011;14992;50.844;4.418;2022-07-23T11:56:04;7.18;;;4.43;;
22336;SDS011;14992;50.844;4.418;2022-07-23T11:58:34;9.80;;;5.32;;
22336;SDS011;14992;50.844;4.418;2022-07-23T12:01:02;8.70;;;5.25;;
22336;SDS011;14992;50.844;4.418;2022-07-23T12:03:31;10.27;;;5.70;;
22336;SDS011;14992;50.844;4.418;2022-07-23T12:05:59;9.15;;;5.45;;
22336;SDS011;14992;50.844;4.418;2022-07-23T12:08:29;8.90;;;5.05;;
22336;SDS011;14992;50.844;4.418;2022-07-23T12:10:57;11.38;;;6.00;;
22336;SDS011;14992;50.844;4.418;2022-07-23T12:13:26;8.82;;;4.70;;
22336;SDS011;14992;50.844;4.418;2022-07-23T12:15:56;11.55;;;5.90;;
22336;SDS011;14992;50.844;4.418;2022-07-23T12:18:26;13.23;;;6.00;;
22336;SDS011;14992;50.844;4.418;2022-07-23T12:20:56;9.93;;;5.40;;
22336;SDS011;14992;50.844;4.418;2022-07-23T12:23:31;8.73;;;5.28;;
22336;SDS011;14992;50.844;4.418;2022-07-23T12:26:00;14.25;;;5.63;;
22336;SDS011;14992;50.844;4.418;2022-07-23T12:28:30;14.43;;;4.80;;
22336;SDS011;14992;50.844;4.418;2022-07-23T12:31:02;11.35;;;5.38;;
22336;SDS011;14992;50.844;4.418;2022-07-23T12:36:00;9.80;;;4.82;;
22336;SDS011;14992;50.844;4.418;2022-07-23T12:38:39;12.35;;;6.60;;
22336;SDS011;14992;50.844;4.418;2022-07-23T12:41:08;12.48;;;7.35;;
22336;SDS011;14992;50.844;4.418;2022-07-23T12:43:37;10.00;;;6.97;;
22336;SDS011;14992;50.844;4.418;2022-07-23T12:46:08;9.70;;;5.93;;
22336;SDS011;14992;50.844;4.418;2022-07-23T12:48:39;10.70;;;5.80;;
22336;SDS011;14992;50.844;4.418;2022-07-23T12:51:20;11.10;;;6.70;;
22336;SDS011;14992;50.844;4.418;2022-07-23T12:53:54;12.38;;;6.97;;
22336;SDS011;14992;50.844;4.418;2022-07-23T12:58:56;11.65;;;7.07;;
22336;SDS011;14992;50.844;4.418;2022-07-23T13:01:28;13.55;;;8.15;;
22336;SDS011;14992;50.844;4.418;2022-07-23T13:04:00;12.73;;;8.35;;
22336;SDS011;14992;50.844;4.418;2022-07-23T13:06:40;12.80;;;8.52;;
22336;SDS011;14992;50.844;4.418;2022-07-23T13:09:13;11.13;;;6.07;;
22336;SDS011;14992;50.844;4.418;2022-07-23T13:11:44;13.45;;;8.20;;
22336;SDS011;14992;50.844;4.418;2022-07-23T13:14:14;16.63;;;7.28;;
22336;SDS011;14992;50.844;4.418;2022-07-23T13:16:46;13.60;;;6.80;;
22336;SDS011;14992;50.844;4.418;2022-07-23T13:19:16;13.15;;;6.63;;
22336;SDS011;14992;50.844;4.418;2022-07-23T13:21:46;14.90;;;8.70;;
22336;SDS011;14992;50.844;4.418;2022-07-23T13:24:16;13.75;;;7.20;;
22336;SDS011;14992;50.844;4.418;2022-07-23T13:26:45;11.43;;;7.28;;
22336;SDS011;14992;50.844;4.418;2022-07-23T13:29:16;11.57;;;6.82;;
22336;SDS011;14992;50.844;4.418;2022-07-23T13:31:45;11.88;;;6.60;;
22336;SDS011;14992;50.844;4.418;2022-07-23T13:34:16;10.00;;;6.28;;
22336;SDS011;14992;50.844;4.418;2022-07-23T13:36:45;10.88;;;6.65;;
22336;SDS011;14992;50.844;4.418;2022-07-23T13:39:15;10.48;;;5.60;;
22336;SDS011;14992;50.844;4.418;2022-07-23T13:41:44;8.15;;;5.10;;
22336;SDS011;14992;50.844;4.418;2022-07-23T13:44:16;9.82;;;5.60;;
22336;SDS011;14992;50.844;4.418;2022-07-23T13:46:48;8.57;;;4.90;;
22336;SDS011;14992;50.844;4.418;2022-07-23T13:49:17;10.23;;;6.35;;
22336;SDS011;14992;50.844;4.418;2022-07-23T13:51:47;9.20;;;5.18;;
22336;SDS011;14992;50.844;4.418;2022-07-23T13:54:18;9.85;;;4.82;;
22336;SDS011;14992;50.844;4.418;2022-07-23T13:56:46;9.52;;;4.57;;
22336;SDS011;14992;50.844;4.418;2022-07-23T13:59:14;8.20;;;4.28;;
22336;SDS011;14992;50.844;4.418;2022-07-23T14:01:43;5.68;;;4.10;;
22336;SDS011;14992;50.844;4.418;2022-07-23T14:04:33;12.30;;;5.18;;
22336;SDS011;14992;50.844;4.418;2022-07-23T14:07:01;10.07;;;6.85;;
22336;SDS011;14992;50.844;4.418;2022-07-23T14:09:31;9.02;;;4.72;;
22336;SDS011;14992;50.844;4.418;2022-07-23T14:12:00;11.63;;;3.85;;
22336;SDS011;14992;50.844;4.418;2022-07-23T14:14:29;8.95;;;4.35;;
22336;SDS011;14992;50.844;4.418;2022-07-23T14:16:58;9.95;;;4.40;;
22336;SDS011;14992;50.844;4.418;2022-07-23T14:19:27;8.95;;;4.80;;
22336;SDS011;14992;50.844;4.418;2022-07-23T14:21:57;9.35;;;4.80;;
22336;SDS011;14992;50.844;4.418;2022-07-23T14:24:25;12.45;;;6.97;;
22336;SDS011;14992;50.844;4.418;2022-07-23T14:27:00;8.13;;;4.65;;
22336;SDS011;14992;50.844;4.418;2022-07-23T14:29:31;9.27;;;4.87;;
22336;SDS011;14992;50.844;4.418;2022-07-23T14:32:00;8.48;;;4.43;;
22336;SDS011;14992;50.844;4.418;2022-07-23T14:34:30;9.57;;;4.30;;
22336;SDS011;14992;50.844;4.418;2022-07-23T14:37:00;8.75;;;5.32;;
22336;SDS011;14992;50.844;4.418;2022-07-23T14:39:30;8.68;;;4.30;;
22336;SDS011;14992;50.844;4.418;2022-07-23T14:41:58;10.15;;;4.30;;
22336;SDS011;14992;50.844;4.418;2022-07-23T14:44:28;6.85;;;4.15;;
22336;SDS011;14992;50.844;4.418;2022-07-23T14:46:57;9.40;;;5.00;;
22336;SDS011;14992;50.844;4.418;2022-07-23T14:49:26;7.93;;;4.60;;
22336;SDS011;14992;50.844;4.418;2022-07-23T14:52:04;8.20;;;4.90;;
22336;SDS011;14992;50.844;4.418;2022-07-23T14:54:33;13.60;;;5.40;;
22336;SDS011;14992;50.844;4.418;2022-07-23T14:57:03;8.63;;;4.70;;
22336;SDS011;14992;50.844;4.418;2022-07-23T14:59:36;8.48;;;5.00;;
22336;SDS011;14992;50.844;4.418;2022-07-23T15:02:06;9.02;;;4.55;;
22336;SDS011;14992;50.844;4.418;2022-07-23T15:04:34;8.70;;;4.60;;
22336;SDS011;14992;50.844;4.418;2022-07-23T15:07:04;7.65;;;4.72;;